sensor_id;sensor_type;location;lat;lon;timestamp;pressure;altitude;pressure_sealevel;temperature;humidity
62524;BME280;53689;56.878;60.672;2023-08-06T00:00:43;97773.69;;;24.11;57.88
62524;BME280;53689;56.878;60.672;2023-08-06T00:03:11;97771.50;;;24.20;57.88
62524;BME280;53689;56.878;60.672;2023-08-06T00:05:43;97770.72;;;24.31;56.85
62524;BME280;53689;56.878;60.672;2023-08-06T00:08:10;97771.59;;;24.13;58.08
62524;BME280;53689;56.878;60.672;2023-08-06T00:10:39;97764.97;;;24.09;57.92
62524;BME280;53689;56.878;60.672;2023-08-06T00:13:07;97760.09;;;24.18;57.98
62524;BME280;53689;56.878;60.672;2023-08-06T00:15:35;97762.63;;;24.31;56.93
62524;BME280;53689;56.878;60.672;2023-08-06T00:18:02;97766.31;;;24.18;57.98
62524;BME280;53689;56.878;60.672;2023-08-06T00:20:30;97751.09;;;24.24;57.24
62524;BME280;53689;56.878;60.672;2023-08-06T00:22:59;97754.28;;;24.33;57.11
62524;BME280;53689;56.878;60.672;2023-08-06T00:25:27;97768.94;;;24.44;57.14
62524;BME280;53689;56.878;60.672;2023-08-06T00:27:55;97765.41;;;24.24;57.26
62524;BME280;53689;56.878;60.672;2023-08-06T00:30:23;97762.78;;;24.18;58.05
62524;BME280;53689;56.878;60.672;2023-08-06T00:32:50;97763.91;;;24.29;57.33
62524;BME280;53689;56.878;60.672;2023-08-06T00:35:18;97760.19;;;24.42;56.70
62524;BME280;53689;56.878;60.672;2023-08-06T00:37:46;97761.16;;;24.17;57.73
62524;BME280;53689;56.878;60.672;2023-08-06T00:40:15;97756.34;;;24.19;57.50
62524;BME280;53689;56.878;60.672;2023-08-06T00:42:42;97763.47;;;24.32;57.88
62524;BME280;53689;56.878;60.672;2023-08-06T00:45:11;97759.66;;;24.51;56.61
62524;BME280;53689;56.878;60.672;2023-08-06T00:47:38;97758.31;;;24.42;56.73
62524;BME280;53689;56.878;60.672;2023-08-06T00:50:07;97760.88;;;24.37;57.54
62524;BME280;53689;56.878;60.672;2023-08-06T00:52:36;97754.66;;;24.36;57.57
62524;BME280;53689;56.878;60.672;2023-08-06T00:55:06;97753.50;;;24.44;56.56
62524;BME280;53689;56.878;60.672;2023-08-06T00:57:35;97743.94;;;24.30;57.09
62524;BME280;53689;56.878;60.672;2023-08-06T01:00:04;97751.25;;;24.41;56.49
62524;BME280;53689;56.878;60.672;2023-08-06T01:02:31;97742.38;;;24.52;55.99
62524;BME280;53689;56.878;60.672;2023-08-06T01:05:00;97743.00;;;24.66;55.39
62524;BME280;53689;56.878;60.672;2023-08-06T01:07:41;97744.56;;;24.44;56.63
62524;BME280;53689;56.878;60.672;2023-08-06T01:10:24;97739.22;;;24.37;57.24
62524;BME280;53689;56.878;60.672;2023-08-06T01:13:08;97738.09;;;24.45;56.85
62524;BME280;53689;56.878;60.672;2023-08-06T01:15:42;97731.16;;;24.49;56.17
62524;BME280;53689;56.878;60.672;2023-08-06T01:18:13;97731.50;;;24.41;56.59
62524;BME280;53689;56.878;60.672;2023-08-06T01:20:43;97728.63;;;24.66;55.91
62524;BME280;53689;56.878;60.672;2023-08-06T01:23:11;97725.75;;;24.79;55.50
62524;BME280;53689;56.878;60.672;2023-08-06T01:25:46;97726.28;;;24.58;56.68
62524;BME280;53689;56.878;60.672;2023-08-06T01:28:26;97734.94;;;24.48;56.29
62524;BME280;53689;56.878;60.672;2023-08-06T01:30:59;97729.03;;;24.39;56.79
62524;BME280;53689;56.878;60.672;2023-08-06T01:33:28;97736.22;;;24.45;56.86
62524;BME280;53689;56.878;60.672;2023-08-06T01:35:59;97736.78;;;24.35;56.75
62524;BME280;53689;56.878;60.672;2023-08-06T01:38:27;97738.88;;;24.33;56.99
62524;BME280;53689;56.878;60.672;2023-08-06T01:40:55;97740.16;;;24.31;57.01
62524;BME280;53689;56.878;60.672;2023-08-06T01:43:23;97733.19;;;24.53;55.99
62524;BME280;53689;56.878;60.672;2023-08-06T01:45:50;97727.13;;;24.39;56.19
62524;BME280;53689;56.878;60.672;2023-08-06T01:48:18;97736.41;;;24.32;56.19
62524;BME280;53689;56.878;60.672;2023-08-06T01:50:46;97724.38;;;24.28;56.19
62524;BME280;53689;56.878;60.672;2023-08-06T01:53:15;97738.97;;;24.57;55.56
62524;BME280;53689;56.878;60.672;2023-08-06T01:55:47;97732.19;;;24.36;56.67
62524;BME280;53689;56.878;60.672;2023-08-06T01:58:15;97733.38;;;24.40;56.59
62524;BME280;53689;56.878;60.672;2023-08-06T02:00:43;97730.59;;;24.47;55.82
62524;BME280;53689;56.878;60.672;2023-08-06T02:03:10;97729.34;;;24.73;54.41
62524;BME280;53689;56.878;60.672;2023-08-06T02:05:38;97716.88;;;24.72;54.26
62524;BME280;53689;56.878;60.672;2023-08-06T02:08:07;97719.59;;;24.72;54.61
62524;BME280;53689;56.878;60.672;2023-08-06T02:10:36;97716.53;;;24.69;55.70
62524;BME280;53689;56.878;60.672;2023-08-06T02:13:04;97703.47;;;24.65;55.71
62524;BME280;53689;56.878;60.672;2023-08-06T02:15:31;97701.41;;;24.49;56.01
62524;BME280;53689;56.878;60.672;2023-08-06T02:17:59;97694.81;;;24.45;55.97
62524;BME280;53689;56.878;60.672;2023-08-06T02:20:27;97693.88;;;24.39;56.01
62524;BME280;53689;56.878;60.672;2023-08-06T02:22:54;97687.06;;;24.48;55.93
62524;BME280;53689;56.878;60.672;2023-08-06T02:25:22;97688.13;;;24.47;56.10
62524;BME280;53689;56.878;60.672;2023-08-06T02:27:51;97692.06;;;24.33;57.54
62524;BME280;53689;56.878;60.672;2023-08-06T02:30:18;97690.47;;;24.44;56.39
62524;BME280;53689;56.878;60.672;2023-08-06T02:32:46;97689.44;;;24.57;55.84
62524;BME280;53689;56.878;60.672;2023-08-06T02:35:14;97691.78;;;24.53;56.04
62524;BME280;53689;56.878;60.672;2023-08-06T02:37:42;97693.19;;;24.56;55.96
62524;BME280;53689;56.878;60.672;2023-08-06T02:40:10;97688.38;;;24.58;55.41
62524;BME280;53689;56.878;60.672;2023-08-06T02:42:38;97692.47;;;25.03;53.66
62524;BME280;53689;56.878;60.672;2023-08-06T02:45:08;97687.69;;;24.74;54.89
62524;BME280;53689;56.878;60.672;2023-08-06T02:47:36;97681.91;;;24.59;55.30
62524;BME280;53689;56.878;60.672;2023-08-06T02:50:04;97686.97;;;24.55;55.36
62524;BME280;53689;56.878;60.672;2023-08-06T02:52:32;97697.63;;;24.50;55.31
62524;BME280;53689;56.878;60.672;2023-08-06T02:55:00;97723.31;;;24.47;56.23
62524;BME280;53689;56.878;60.672;2023-08-06T02:57:29;97720.59;;;24.47;56.00
62524;BME280;53689;56.878;60.672;2023-08-06T02:59:57;97711.31;;;24.55;55.67
62524;BME280;53689;56.878;60.672;2023-08-06T03:02:27;97704.53;;;24.34;56.01
62524;BME280;53689;56.878;60.672;2023-08-06T03:05:12;97689.63;;;24.43;55.79
62524;BME280;53689;56.878;60.672;2023-08-06T03:07:43;97697.75;;;24.43;55.90
62524;BME280;53689;56.878;60.672;2023-08-06T03:10:20;97702.94;;;24.45;56.02
62524;BME280;53689;56.878;60.672;2023-08-06T03:12:50;97708.97;;;24.59;55.20
62524;BME280;53689;56.878;60.672;2023-08-06T03:15:19;97712.47;;;24.47;55.69
62524;BME280;53689;56.878;60.672;2023-08-06T03:17:48;97718.22;;;24.51;55.81
62524;BME280;53689;56.878;60.672;2023-08-06T03:20:20;97726.00;;;24.47;55.84
62524;BME280;53689;56.878;60.672;2023-08-06T03:22:47;97731.97;;;24.37;55.59
62524;BME280;53689;56.878;60.672;2023-08-06T03:25:15;97735.19;;;24.28;55.66
62524;BME280;53689;56.878;60.672;2023-08-06T03:27:46;97747.75;;;24.03;56.60
62524;BME280;53689;56.878;60.672;2023-08-06T03:30:17;97750.25;;;24.05;56.25
62524;BME280;53689;56.878;60.672;2023-08-06T03:32:45;97742.66;;;24.14;56.53
62524;BME280;53689;56.878;60.672;2023-08-06T03:35:16;97753.25;;;24.15;57.66
62524;BME280;53689;56.878;60.672;2023-08-06T03:37:44;97745.72;;;23.80;58.77
62524;BME280;53689;56.878;60.672;2023-08-06T03:40:12;97741.31;;;23.67;59.04
62524;BME280;53689;56.878;60.672;2023-08-06T03:42:39;97722.88;;;23.38;60.52
62524;BME280;53689;56.878;60.672;2023-08-06T03:45:08;97715.22;;;23.10;61.14
62524;BME280;53689;56.878;60.672;2023-08-06T03:47:36;97713.19;;;23.05;60.78
62524;BME280;53689;56.878;60.672;2023-08-06T03:50:05;97718.94;;;23.09;61.36
62524;BME280;53689;56.878;60.672;2023-08-06T03:52:34;97714.06;;;22.99;60.83
62524;BME280;53689;56.878;60.672;2023-08-06T03:55:02;97707.81;;;22.98;61.61
62524;BME280;53689;56.878;60.672;2023-08-06T03:57:30;97701.28;;;22.88;61.49
62524;BME280;53689;56.878;60.672;2023-08-06T03:59:57;97706.75;;;22.74;61.72
62524;BME280;53689;56.878;60.672;2023-08-06T04:02:29;97708.94;;;22.91;61.17
62524;BME280;53689;56.878;60.672;2023-08-06T04:04:56;97705.78;;;22.94;61.42
62524;BME280;53689;56.878;60.672;2023-08-06T04:07:24;97711.69;;;23.09;61.24
62524;BME280;53689;56.878;60.672;2023-08-06T04:09:57;97733.09;;;23.04;60.65
62524;BME280;53689;56.878;60.672;2023-08-06T04:12:26;97753.94;;;22.97;60.69
62524;BME280;53689;56.878;60.672;2023-08-06T04:14:54;97785.06;;;22.99;61.42
62524;BME280;53689;56.878;60.672;2023-08-06T04:17:22;97777.94;;;23.12;60.77
62524;BME280;53689;56.878;60.672;2023-08-06T04:19:50;97789.78;;;23.11;60.29
62524;BME280;53689;56.878;60.672;2023-08-06T04:22:18;97802.50;;;23.04;61.28
62524;BME280;53689;56.878;60.672;2023-08-06T04:24:47;97797.16;;;22.97;61.45
62524;BME280;53689;56.878;60.672;2023-08-06T04:27:17;97824.78;;;22.92;61.30
62524;BME280;53689;56.878;60.672;2023-08-06T04:29:45;97826.50;;;22.86;60.97
62524;BME280;53689;56.878;60.672;2023-08-06T04:32:13;97841.28;;;22.77;61.48
62524;BME280;53689;56.878;60.672;2023-08-06T04:34:46;97845.00;;;22.76;61.41
62524;BME280;53689;56.878;60.672;2023-08-06T04:37:14;97853.94;;;22.77;61.18
62524;BME280;53689;56.878;60.672;2023-08-06T04:39:43;97859.81;;;22.60;61.56
62524;BME280;53689;56.878;60.672;2023-08-06T04:42:11;97859.44;;;22.43;61.83
62524;BME280;53689;56.878;60.672;2023-08-06T04:44:40;97862.75;;;22.45;61.29
62524;BME280;53689;56.878;60.672;2023-08-06T04:47:08;97853.78;;;22.65;61.27
62524;BME280;53689;56.878;60.672;2023-08-06T04:49:35;97809.31;;;22.74;61.03
62524;BME280;53689;56.878;60.672;2023-08-06T04:52:04;97812.34;;;22.52;60.79
62524;BME280;53689;56.878;60.672;2023-08-06T04:54:32;97801.53;;;22.52;58.32
62524;BME280;53689;56.878;60.672;2023-08-06T04:56:59;97782.66;;;22.84;56.98
62524;BME280;53689;56.878;60.672;2023-08-06T04:59:27;97771.16;;;23.03;56.79
62524;BME280;53689;56.878;60.672;2023-08-06T05:01:56;97766.81;;;22.95;56.46
62524;BME280;53689;56.878;60.672;2023-08-06T05:04:24;97767.72;;;22.89;57.90
62524;BME280;53689;56.878;60.672;2023-08-06T05:06:51;97767.59;;;23.02;56.68
62524;BME280;53689;56.878;60.672;2023-08-06T05:09:19;97776.50;;;22.77;58.46
62524;BME280;53689;56.878;60.672;2023-08-06T05:11:46;97777.81;;;22.61;58.57
62524;BME280;53689;56.878;60.672;2023-08-06T05:14:14;97779.66;;;22.67;59.03
62524;BME280;53689;56.878;60.672;2023-08-06T05:16:42;97777.06;;;22.54;58.81
62524;BME280;53689;56.878;60.672;2023-08-06T05:19:11;97772.69;;;22.46;59.40
62524;BME280;53689;56.878;60.672;2023-08-06T05:21:38;97771.28;;;22.50;59.65
62524;BME280;53689;56.878;60.672;2023-08-06T05:24:06;97767.09;;;22.54;59.07
62524;BME280;53689;56.878;60.672;2023-08-06T05:26:34;97767.94;;;22.41;59.75
62524;BME280;53689;56.878;60.672;2023-08-06T05:29:01;97769.03;;;22.34;60.42
62524;BME280;53689;56.878;60.672;2023-08-06T05:31:29;97770.63;;;22.55;59.45
62524;BME280;53689;56.878;60.672;2023-08-06T05:33:56;97779.84;;;23.05;58.14
62524;BME280;53689;56.878;60.672;2023-08-06T05:36:25;97797.16;;;22.97;58.82
62524;BME280;53689;56.878;60.672;2023-08-06T05:38:56;97792.06;;;22.75;59.24
62524;BME280;53689;56.878;60.672;2023-08-06T05:41:23;97790.66;;;22.66;59.28
62524;BME280;53689;56.878;60.672;2023-08-06T05:43:51;97789.34;;;22.82;59.27
62524;BME280;53689;56.878;60.672;2023-08-06T05:46:18;97790.59;;;22.79;58.50
62524;BME280;53689;56.878;60.672;2023-08-06T05:48:46;97779.97;;;22.52;59.70
62524;BME280;53689;56.878;60.672;2023-08-06T05:51:14;97778.53;;;22.43;60.30
62524;BME280;53689;56.878;60.672;2023-08-06T05:53:43;97772.94;;;22.44;60.25
62524;BME280;53689;56.878;60.672;2023-08-06T05:56:10;97766.09;;;22.42;59.36
62524;BME280;53689;56.878;60.672;2023-08-06T05:58:38;97762.22;;;22.70;58.45
62524;BME280;53689;56.878;60.672;2023-08-06T06:01:05;97743.41;;;22.89;58.07
62524;BME280;53689;56.878;60.672;2023-08-06T06:03:33;97752.00;;;23.04;57.88
62524;BME280;53689;56.878;60.672;2023-08-06T06:06:01;97744.38;;;22.69;58.80
62524;BME280;53689;56.878;60.672;2023-08-06T06:08:29;97737.56;;;22.92;57.71
62524;BME280;53689;56.878;60.672;2023-08-06T06:10:58;97726.84;;;22.85;57.91
62524;BME280;53689;56.878;60.672;2023-08-06T06:13:25;97734.28;;;23.15;56.70
62524;BME280;53689;56.878;60.672;2023-08-06T06:15:54;97724.22;;;23.29;56.74
62524;BME280;53689;56.878;60.672;2023-08-06T06:18:22;97720.06;;;23.01;56.93
62524;BME280;53689;56.878;60.672;2023-08-06T06:20:49;97720.25;;;23.06;56.90
62524;BME280;53689;56.878;60.672;2023-08-06T06:23:17;97712.22;;;22.93;58.15
62524;BME280;53689;56.878;60.672;2023-08-06T06:25:49;97710.19;;;23.13;57.18
62524;BME280;53689;56.878;60.672;2023-08-06T06:28:18;97705.84;;;23.12;57.76
62524;BME280;53689;56.878;60.672;2023-08-06T06:30:47;97699.06;;;23.03;57.76
62524;BME280;53689;56.878;60.672;2023-08-06T06:33:15;97693.25;;;23.06;57.85
62524;BME280;53689;56.878;60.672;2023-08-06T06:35:43;97691.06;;;23.40;56.77
62524;BME280;53689;56.878;60.672;2023-08-06T06:38:10;97695.69;;;23.33;57.08
62524;BME280;53689;56.878;60.672;2023-08-06T06:40:38;97685.97;;;23.25;57.29
62524;BME280;53689;56.878;60.672;2023-08-06T06:43:06;97687.78;;;23.13;59.43
62524;BME280;53689;56.878;60.672;2023-08-06T06:45:35;97677.72;;;23.64;56.69
62524;BME280;53689;56.878;60.672;2023-08-06T06:48:03;97668.34;;;23.48;56.89
62524;BME280;53689;56.878;60.672;2023-08-06T06:50:31;97672.91;;;23.48;56.52
62524;BME280;53689;56.878;60.672;2023-08-06T06:52:59;97668.66;;;23.14;58.18
62524;BME280;53689;56.878;60.672;2023-08-06T06:55:26;97671.44;;;23.26;57.76
62524;BME280;53689;56.878;60.672;2023-08-06T06:57:54;97667.97;;;23.45;57.14
62524;BME280;53689;56.878;60.672;2023-08-06T07:00:22;97670.72;;;23.12;57.84
62524;BME280;53689;56.878;60.672;2023-08-06T07:02:51;97672.97;;;22.97;58.45
62524;BME280;53689;56.878;60.672;2023-08-06T07:05:19;97681.28;;;22.95;59.16
62524;BME280;53689;56.878;60.672;2023-08-06T07:07:46;97675.19;;;23.25;57.90
62524;BME280;53689;56.878;60.672;2023-08-06T07:10:14;97671.56;;;23.13;59.17
62524;BME280;53689;56.878;60.672;2023-08-06T07:12:41;97663.84;;;23.17;59.05
62524;BME280;53689;56.878;60.672;2023-08-06T07:15:10;97659.50;;;23.16;59.12
62524;BME280;53689;56.878;60.672;2023-08-06T07:17:37;97648.31;;;23.56;57.01
62524;BME280;53689;56.878;60.672;2023-08-06T07:20:07;97639.91;;;23.46;57.81
62524;BME280;53689;56.878;60.672;2023-08-06T07:22:35;97633.16;;;23.36;58.51
62524;BME280;53689;56.878;60.672;2023-08-06T07:25:03;97635.25;;;23.53;57.92
62524;BME280;53689;56.878;60.672;2023-08-06T07:27:32;97640.94;;;23.63;57.81
62524;BME280;53689;56.878;60.672;2023-08-06T07:29:59;97644.75;;;23.37;58.56
62524;BME280;53689;56.878;60.672;2023-08-06T07:32:27;97649.34;;;23.36;59.57
62524;BME280;53689;56.878;60.672;2023-08-06T07:34:55;97657.53;;;23.30;59.75
62524;BME280;53689;56.878;60.672;2023-08-06T07:37:24;97670.03;;;23.42;59.42
62524;BME280;53689;56.878;60.672;2023-08-06T07:39:51;97673.06;;;23.34;59.71
62524;BME280;53689;56.878;60.672;2023-08-06T07:42:19;97678.56;;;23.21;59.45
62524;BME280;53689;56.878;60.672;2023-08-06T07:44:51;97682.75;;;23.17;59.18
62524;BME280;53689;56.878;60.672;2023-08-06T07:47:19;97690.16;;;23.28;58.90
62524;BME280;53689;56.878;60.672;2023-08-06T07:49:47;97687.59;;;23.33;58.12
62524;BME280;53689;56.878;60.672;2023-08-06T07:52:15;97683.88;;;23.27;58.48
62524;BME280;53689;56.878;60.672;2023-08-06T07:54:44;97692.66;;;23.23;58.46
62524;BME280;53689;56.878;60.672;2023-08-06T07:57:11;97697.19;;;23.29;58.13
62524;BME280;53689;56.878;60.672;2023-08-06T07:59:39;97697.72;;;23.38;58.78
62524;BME280;53689;56.878;60.672;2023-08-06T08:02:06;97703.78;;;23.33;59.66
62524;BME280;53689;56.878;60.672;2023-08-06T08:04:34;97708.44;;;23.26;58.82
62524;BME280;53689;56.878;60.672;2023-08-06T08:07:02;97710.03;;;23.34;58.36
62524;BME280;53689;56.878;60.672;2023-08-06T08:09:29;97703.97;;;23.38;58.19
62524;BME280;53689;56.878;60.672;2023-08-06T08:11:58;97711.63;;;23.41;58.31
62524;BME280;53689;56.878;60.672;2023-08-06T08:14:27;97715.22;;;23.35;59.06
62524;BME280;53689;56.878;60.672;2023-08-06T08:16:55;97718.19;;;23.27;59.36
62524;BME280;53689;56.878;60.672;2023-08-06T08:19:22;97722.81;;;23.45;58.59
62524;BME280;53689;56.878;60.672;2023-08-06T08:21:50;97735.72;;;23.43;58.81
62524;BME280;53689;56.878;60.672;2023-08-06T08:24:18;97731.19;;;23.37;58.83
62524;BME280;53689;56.878;60.672;2023-08-06T08:26:46;97735.50;;;23.45;58.88
62524;BME280;53689;56.878;60.672;2023-08-06T08:29:15;97740.28;;;23.42;59.15
62524;BME280;53689;56.878;60.672;2023-08-06T08:31:43;97736.38;;;23.38;60.04
62524;BME280;53689;56.878;60.672;2023-08-06T08:34:11;97738.31;;;23.31;59.54
62524;BME280;53689;56.878;60.672;2023-08-06T08:36:39;97742.66;;;23.32;59.62
62524;BME280;53689;56.878;60.672;2023-08-06T08:39:06;97743.00;;;23.61;59.01
62524;BME280;53689;56.878;60.672;2023-08-06T08:41:36;97737.22;;;23.39;59.89
62524;BME280;53689;56.878;60.672;2023-08-06T08:44:07;97731.50;;;23.22;60.37
62524;BME280;53689;56.878;60.672;2023-08-06T08:46:37;97735.63;;;23.31;59.88
62524;BME280;53689;56.878;60.672;2023-08-06T08:49:05;97734.94;;;23.36;60.06
62524;BME280;53689;56.878;60.672;2023-08-06T08:51:33;97735.44;;;23.26;59.95
62524;BME280;53689;56.878;60.672;2023-08-06T08:54:03;97725.84;;;23.30;60.36
62524;BME280;53689;56.878;60.672;2023-08-06T08:56:31;97722.69;;;23.33;60.33
62524;BME280;53689;56.878;60.672;2023-08-06T08:58:58;97717.69;;;23.37;59.47
62524;BME280;53689;56.878;60.672;2023-08-06T09:01:27;97719.56;;;23.36;59.39
62524;BME280;53689;56.878;60.672;2023-08-06T09:03:57;97720.94;;;23.46;59.24
62524;BME280;53689;56.878;60.672;2023-08-06T09:06:25;97716.44;;;23.58;58.02
62524;BME280;53689;56.878;60.672;2023-08-06T09:08:59;97709.84;;;23.54;58.49
62524;BME280;53689;56.878;60.672;2023-08-06T09:11:29;97706.41;;;23.65;58.30
62524;BME280;53689;56.878;60.672;2023-08-06T09:13:59;97692.13;;;23.58;57.26
62524;BME280;53689;56.878;60.672;2023-08-06T09:16:27;97712.06;;;23.38;56.26
62524;BME280;53689;56.878;60.672;2023-08-06T09:18:58;97704.88;;;23.51;55.82
62524;BME280;53689;56.878;60.672;2023-08-06T09:21:37;97699.94;;;23.48;55.52
62524;BME280;53689;56.878;60.672;2023-08-06T09:24:07;97700.09;;;23.53;55.79
62524;BME280;53689;56.878;60.672;2023-08-06T09:26:35;97706.31;;;23.53;54.79
62524;BME280;53689;56.878;60.672;2023-08-06T09:29:05;97711.56;;;23.48;54.77
62524;BME280;53689;56.878;60.672;2023-08-06T09:31:33;97705.50;;;23.53;54.27
62524;BME280;53689;56.878;60.672;2023-08-06T09:34:10;97710.28;;;23.51;54.06
62524;BME280;53689;56.878;60.672;2023-08-06T09:36:40;97709.88;;;23.47;54.45
62524;BME280;53689;56.878;60.672;2023-08-06T09:39:18;97708.50;;;23.63;53.75
62524;BME280;53689;56.878;60.672;2023-08-06T09:41:46;97715.25;;;23.54;53.81
62524;BME280;53689;56.878;60.672;2023-08-06T09:44:18;97713.16;;;23.75;53.25
62524;BME280;53689;56.878;60.672;2023-08-06T09:46:49;97715.97;;;23.61;54.15
62524;BME280;53689;56.878;60.672;2023-08-06T09:49:19;97703.53;;;23.60;54.32
62524;BME280;53689;56.878;60.672;2023-08-06T09:51:51;97695.97;;;23.69;53.65
62524;BME280;53689;56.878;60.672;2023-08-06T09:54:19;97706.91;;;23.74;53.59
62524;BME280;53689;56.878;60.672;2023-08-06T09:56:54;97699.72;;;23.68;53.72
62524;BME280;53689;56.878;60.672;2023-08-06T09:59:22;97694.81;;;23.77;53.13
62524;BME280;53689;56.878;60.672;2023-08-06T10:01:50;97691.22;;;23.83;53.16
62524;BME280;53689;56.878;60.672;2023-08-06T10:04:21;97681.16;;;23.90;52.49
62524;BME280;53689;56.878;60.672;2023-08-06T10:06:52;97675.38;;;23.87;52.66
62524;BME280;53689;56.878;60.672;2023-08-06T10:09:20;97671.84;;;24.05;52.33
62524;BME280;53689;56.878;60.672;2023-08-06T10:11:50;97671.44;;;24.01;52.97
62524;BME280;53689;56.878;60.672;2023-08-06T10:14:23;97669.41;;;23.96;52.67
62524;BME280;53689;56.878;60.672;2023-08-06T10:16:51;97657.28;;;24.06;52.42
62524;BME280;53689;56.878;60.672;2023-08-06T10:19:22;97657.78;;;23.96;51.80
62524;BME280;53689;56.878;60.672;2023-08-06T10:22:08;97654.84;;;23.97;52.23
62524;BME280;53689;56.878;60.672;2023-08-06T10:24:48;97644.81;;;23.86;52.13
62524;BME280;53689;56.878;60.672;2023-08-06T10:27:20;97644.00;;;23.86;51.42
62524;BME280;53689;56.878;60.672;2023-08-06T10:29:49;97634.69;;;23.81;51.78
62524;BME280;53689;56.878;60.672;2023-08-06T10:32:16;97628.19;;;24.01;51.11
62524;BME280;53689;56.878;60.672;2023-08-06T10:34:55;97618.34;;;24.07;51.08
62524;BME280;53689;56.878;60.672;2023-08-06T10:37:24;97624.00;;;24.05;51.20
62524;BME280;53689;56.878;60.672;2023-08-06T10:39:52;97619.31;;;24.13;52.21
62524;BME280;53689;56.878;60.672;2023-08-06T10:42:21;97614.53;;;24.27;50.82
62524;BME280;53689;56.878;60.672;2023-08-06T10:45:14;97615.91;;;24.17;50.70
62524;BME280;53689;56.878;60.672;2023-08-06T10:47:42;97604.41;;;24.10;50.75
62524;BME280;53689;56.878;60.672;2023-08-06T10:50:13;97602.19;;;24.19;51.02
62524;BME280;53689;56.878;60.672;2023-08-06T10:52:41;97592.28;;;24.13;50.39
62524;BME280;53689;56.878;60.672;2023-08-06T10:55:09;97599.47;;;24.19;50.53
62524;BME280;53689;56.878;60.672;2023-08-06T10:57:36;97599.25;;;24.20;49.72
62524;BME280;53689;56.878;60.672;2023-08-06T11:00:05;97599.84;;;24.22;49.44
62524;BME280;53689;56.878;60.672;2023-08-06T11:02:43;97595.59;;;24.15;48.87
62524;BME280;53689;56.878;60.672;2023-08-06T11:05:13;97580.41;;;24.14;48.84
62524;BME280;53689;56.878;60.672;2023-08-06T11:07:40;97585.59;;;24.15;49.52
62524;BME280;53689;56.878;60.672;2023-08-06T11:10:09;97585.31;;;24.05;49.79
62524;BME280;53689;56.878;60.672;2023-08-06T11:12:37;97586.63;;;24.14;50.03
62524;BME280;53689;56.878;60.672;2023-08-06T11:15:07;97596.28;;;24.10;49.16
62524;BME280;53689;56.878;60.672;2023-08-06T11:17:35;97587.34;;;24.09;48.77
62524;BME280;53689;56.878;60.672;2023-08-06T11:20:04;97604.03;;;24.06;48.84
62524;BME280;53689;56.878;60.672;2023-08-06T11:22:36;97607.09;;;24.10;47.66
62524;BME280;53689;56.878;60.672;2023-08-06T11:25:05;97599.44;;;24.07;47.80
62524;BME280;53689;56.878;60.672;2023-08-06T11:27:32;97600.31;;;24.19;48.09
62524;BME280;53689;56.878;60.672;2023-08-06T11:30:00;97589.81;;;24.23;47.65
62524;BME280;53689;56.878;60.672;2023-08-06T11:32:28;97592.03;;;24.14;47.42
62524;BME280;53689;56.878;60.672;2023-08-06T11:34:56;97596.66;;;24.25;48.20
62524;BME280;53689;56.878;60.672;2023-08-06T11:37:24;97607.38;;;24.20;47.51
62524;BME280;53689;56.878;60.672;2023-08-06T11:39:53;97607.47;;;24.25;47.53
62524;BME280;53689;56.878;60.672;2023-08-06T11:42:21;97597.13;;;24.22;47.75
62524;BME280;53689;56.878;60.672;2023-08-06T11:44:48;97604.44;;;24.34;47.67
62524;BME280;53689;56.878;60.672;2023-08-06T11:47:17;97597.50;;;24.26;47.48
62524;BME280;53689;56.878;60.672;2023-08-06T11:49:46;97605.94;;;24.18;48.51
62524;BME280;53689;56.878;60.672;2023-08-06T11:52:15;97600.78;;;24.28;48.20
62524;BME280;53689;56.878;60.672;2023-08-06T11:54:44;97609.75;;;24.29;48.03
62524;BME280;53689;56.878;60.672;2023-08-06T11:57:15;97607.16;;;24.34;48.03
62524;BME280;53689;56.878;60.672;2023-08-06T11:59:45;97611.97;;;24.32;49.29
62524;BME280;53689;56.878;60.672;2023-08-06T12:02:13;97610.69;;;24.34;48.35
62524;BME280;53689;56.878;60.672;2023-08-06T12:04:59;97619.28;;;24.43;48.17
62524;BME280;53689;56.878;60.672;2023-08-06T12:07:28;97618.09;;;24.51;48.19
62524;BME280;53689;56.878;60.672;2023-08-06T12:09:57;97622.59;;;24.57;48.67
62524;BME280;53689;56.878;60.672;2023-08-06T12:12:28;97625.91;;;24.47;48.13
62524;BME280;53689;56.878;60.672;2023-08-06T12:14:56;97624.34;;;24.51;48.61
62524;BME280;53689;56.878;60.672;2023-08-06T12:17:25;97630.94;;;24.44;48.61
62524;BME280;53689;56.878;60.672;2023-08-06T12:19:54;97630.09;;;24.43;48.56
62524;BME280;53689;56.878;60.672;2023-08-06T12:22:24;97633.06;;;24.53;48.03
62524;BME280;53689;56.878;60.672;2023-08-06T12:24:52;97628.72;;;24.52;48.64
62524;BME280;53689;56.878;60.672;2023-08-06T12:27:20;97636.34;;;24.56;48.61
62524;BME280;53689;56.878;60.672;2023-08-06T12:29:51;97632.47;;;24.51;48.33
62524;BME280;53689;56.878;60.672;2023-08-06T12:32:19;97632.13;;;24.60;48.77
62524;BME280;53689;56.878;60.672;2023-08-06T12:34:48;97627.22;;;24.57;48.51
62524;BME280;53689;56.878;60.672;2023-08-06T12:37:20;97629.28;;;24.55;48.64
62524;BME280;53689;56.878;60.672;2023-08-06T12:39:48;97617.88;;;24.52;49.48
62524;BME280;53689;56.878;60.672;2023-08-06T12:42:16;97620.47;;;24.47;49.56
62524;BME280;53689;56.878;60.672;2023-08-06T12:44:44;97626.38;;;24.56;49.37
62524;BME280;53689;56.878;60.672;2023-08-06T12:47:13;97617.19;;;24.57;49.71
62524;BME280;53689;56.878;60.672;2023-08-06T12:49:41;97621.53;;;24.58;49.58
62524;BME280;53689;56.878;60.672;2023-08-06T12:52:09;97622.47;;;24.64;48.97
62524;BME280;53689;56.878;60.672;2023-08-06T12:54:37;97630.38;;;24.65;49.06
62524;BME280;53689;56.878;60.672;2023-08-06T12:57:06;97625.56;;;24.67;49.49
62524;BME280;53689;56.878;60.672;2023-08-06T12:59:34;97631.56;;;24.58;49.85